createdAt,value
2018-09-17T00:01:10.896Z,4.30
2018-09-17T00:03:39.505Z,4.33
2018-09-17T00:06:08.056Z,4.10
2018-09-17T00:08:36.491Z,5.97
2018-09-17T00:11:04.929Z,3.33
2018-09-17T00:13:33.425Z,4.67
2018-09-17T00:16:01.856Z,3.20
2018-09-17T00:18:30.288Z,3.27
2018-09-17T00:20:58.726Z,4.70
2018-09-17T00:23:27.169Z,4.07
2018-09-17T00:25:55.649Z,5.10
2018-09-17T00:28:24.065Z,4.47
2018-09-17T00:30:52.549Z,8.47
2018-09-17T00:33:21.051Z,4.80
2018-09-17T00:35:49.512Z,3.93
2018-09-17T00:38:17.952Z,4.67
2018-09-17T00:40:46.433Z,3.87
2018-09-17T00:43:15.529Z,4.10
2018-09-17T00:45:46.915Z,3.40
2018-09-17T00:48:15.394Z,6.77
2018-09-17T00:50:43.862Z,5.40
2018-09-17T00:53:12.291Z,5.67
2018-09-17T00:55:40.762Z,4.60
2018-09-17T00:58:09.172Z,5.73
2018-09-17T01:00:37.617Z,8.80
2018-09-17T01:03:06.119Z,3.77
2018-09-17T01:05:34.678Z,4.10
2018-09-17T01:08:03.174Z,5.60
2018-09-17T01:10:31.707Z,4.03
2018-09-17T01:13:00.161Z,4.90
2018-09-17T01:15:28.660Z,3.87
2018-09-17T01:17:57.108Z,5.97
2018-09-17T01:20:25.585Z,3.43
2018-09-17T01:22:54.217Z,4.20
2018-09-17T01:25:22.649Z,3.80
2018-09-17T01:27:51.261Z,3.20
2018-09-17T01:30:19.706Z,3.90
2018-09-17T01:32:48.169Z,4.90
2018-09-17T01:35:16.679Z,15.40
2018-09-17T01:37:47.254Z,4.80
2018-09-17T01:40:15.673Z,3.77
2018-09-17T01:42:44.403Z,3.47
2018-09-17T01:45:12.881Z,5.13
2018-09-17T01:47:41.313Z,3.80
2018-09-17T01:50:09.962Z,5.83
2018-09-17T01:52:38.409Z,4.33
2018-09-17T01:55:06.882Z,3.80
2018-09-17T01:57:35.326Z,3.60
2018-09-17T02:00:03.821Z,3.97
2018-09-17T02:02:32.250Z,3.10
2018-09-17T02:05:00.785Z,3.83
2018-09-17T02:07:29.220Z,3.37
2018-09-17T02:09:57.707Z,3.57
2018-09-17T02:12:26.098Z,3.90
2018-09-17T02:14:54.554Z,5.30
2018-09-17T02:17:23.033Z,5.40
2018-09-17T02:19:51.664Z,3.60
2018-09-17T02:22:20.120Z,4.63
2018-09-17T02:24:48.618Z,5.03
2018-09-17T02:27:17.111Z,5.00
2018-09-17T02:29:45.555Z,3.83
2018-09-17T02:32:13.982Z,4.73
2018-09-17T02:34:42.408Z,3.50
2018-09-17T02:37:10.899Z,4.13
2018-09-17T02:39:39.526Z,5.00
2018-09-17T02:42:08.416Z,3.33
2018-09-17T02:44:37.183Z,5.37
2018-09-17T02:47:05.810Z,4.40
2018-09-17T02:49:34.265Z,4.60
2018-09-17T02:52:02.753Z,4.80
2018-09-17T02:54:31.182Z,3.20
2018-09-17T02:56:59.632Z,3.73
2018-09-17T02:59:28.414Z,4.17
2018-09-17T03:01:56.882Z,5.87
2018-09-17T03:04:25.329Z,3.37
2018-09-17T03:06:53.767Z,4.90
2018-09-17T03:09:22.219Z,3.10
2018-09-17T03:11:50.645Z,4.47
2018-09-17T03:14:26.785Z,3.97
2018-09-17T03:17:11.077Z,5.60
2018-09-17T03:19:40.290Z,5.83
2018-09-17T03:22:08.853Z,4.87
2018-09-17T03:24:37.632Z,4.13
2018-09-17T03:27:06.326Z,3.63
2018-09-17T03:29:34.785Z,3.20
2018-09-17T03:32:03.250Z,4.37
2018-09-17T03:34:31.713Z,4.70
2018-09-17T03:37:00.269Z,3.43
2018-09-17T03:39:28.880Z,3.23
2018-09-17T03:41:57.339Z,3.97
2018-09-17T03:44:25.798Z,5.93
2018-09-17T03:46:54.271Z,5.50
2018-09-17T03:49:22.702Z,5.93
2018-09-17T03:51:51.170Z,4.60
2018-09-17T03:54:19.605Z,3.97
2018-09-17T03:56:48.077Z,3.97
2018-09-17T03:59:16.518Z,4.40
2018-09-17T04:01:44.960Z,4.37
2018-09-17T04:04:13.428Z,4.97
2018-09-17T04:06:41.930Z,3.90
2018-09-17T04:09:10.375Z,5.00
2018-09-17T04:11:38.821Z,3.63
2018-09-17T04:14:08.118Z,7.80
2018-09-17T04:16:36.946Z,6.13
2018-09-17T04:19:05.629Z,4.97
2018-09-17T04:21:34.046Z,5.63
2018-09-17T04:24:02.730Z,6.03
2018-09-17T04:26:31.277Z,5.03
2018-09-17T04:28:59.723Z,3.97
2018-09-17T04:31:28.201Z,3.67
2018-09-17T04:33:56.613Z,5.80
2018-09-17T04:36:25.073Z,5.63
2018-09-17T04:38:53.793Z,6.00
2018-09-17T04:41:22.331Z,5.13
2018-09-17T04:43:50.776Z,3.90
2018-09-17T04:46:19.191Z,3.30
2018-09-17T04:48:47.614Z,3.77
2018-09-17T04:51:16.191Z,5.83
2018-09-17T04:53:44.661Z,5.50
2018-09-17T04:56:13.108Z,4.03
2018-09-17T04:58:41.566Z,4.87
2018-09-17T05:01:10.051Z,4.60
2018-09-17T05:03:38.474Z,5.67
2018-09-17T05:06:06.958Z,3.93
2018-09-17T05:08:35.426Z,3.70
2018-09-17T05:11:03.897Z,4.17
2018-09-17T05:13:32.403Z,6.60
2018-09-17T05:16:04.474Z,4.73
2018-09-17T05:18:32.930Z,4.87
2018-09-17T05:21:01.358Z,4.77
2018-09-17T05:23:29.818Z,3.50
2018-09-17T05:25:58.258Z,5.83
2018-09-17T05:28:26.722Z,5.00
2018-09-17T05:30:55.162Z,4.83
2018-09-17T05:33:23.652Z,5.10
2018-09-17T05:35:52.210Z,7.00
2018-09-17T05:38:21.834Z,4.90
2018-09-17T05:40:50.276Z,3.10
2018-09-17T05:43:18.764Z,3.90
2018-09-17T05:45:47.198Z,5.03
2018-09-17T05:48:15.633Z,4.20
2018-09-17T05:50:44.090Z,3.87
2018-09-17T05:53:12.521Z,4.97
2018-09-17T05:55:40.985Z,6.83
2018-09-17T05:58:09.403Z,5.60
2018-09-17T06:00:37.914Z,5.43
2018-09-17T06:03:06.431Z,5.67
2018-09-17T06:05:35.087Z,6.77
2018-09-17T06:08:03.537Z,4.97
2018-09-17T06:10:32.029Z,3.93
2018-09-17T06:13:00.494Z,7.27
2018-09-17T06:15:29.036Z,3.10
2018-09-17T06:17:57.611Z,3.43
2018-09-17T06:20:26.097Z,5.63
2018-09-17T06:22:54.514Z,2.50
2018-09-17T06:25:23.066Z,4.10
2018-09-17T06:27:51.515Z,4.50
2018-09-17T06:30:19.942Z,7.17
2018-09-17T06:32:48.423Z,4.60
2018-09-17T06:35:16.885Z,4.27
2018-09-17T06:37:45.438Z,6.23
2018-09-17T06:40:13.871Z,6.70
2018-09-17T06:42:43.196Z,4.67
2018-09-17T06:45:12.029Z,3.97
2018-09-17T06:47:40.576Z,5.23
2018-09-17T06:50:09.154Z,6.77
2018-09-17T06:52:37.594Z,7.27
2018-09-17T06:55:06.065Z,6.40
2018-09-17T06:57:34.488Z,3.63
2018-09-17T07:00:02.992Z,3.27
2018-09-17T07:02:31.409Z,3.00
2018-09-17T07:04:59.865Z,6.53
2018-09-17T07:07:28.338Z,2.83
2018-09-17T07:09:56.789Z,5.47
2018-09-17T07:12:25.234Z,2.70
2018-09-17T07:14:53.688Z,5.33
2018-09-17T07:17:22.128Z,4.60
2018-09-17T07:19:50.601Z,5.83
2018-09-17T07:22:19.053Z,4.17
2018-09-17T07:24:47.509Z,4.73
2018-09-17T07:27:16.206Z,5.30
2018-09-17T07:29:44.645Z,2.53
2018-09-17T07:32:13.133Z,5.47
2018-09-17T07:34:41.589Z,3.27
2018-09-17T07:37:10.253Z,3.13
2018-09-17T07:39:38.703Z,4.33
2018-09-17T07:42:07.202Z,3.53
2018-09-17T07:44:35.714Z,3.57
2018-09-17T07:47:04.227Z,5.73
2018-09-17T07:49:32.658Z,5.37
2018-09-17T07:52:01.337Z,4.03
2018-09-17T07:54:29.891Z,3.90
2018-09-17T07:56:58.489Z,3.50
2018-09-17T07:59:26.918Z,4.73
2018-09-17T08:01:55.370Z,2.87
2018-09-17T08:04:23.821Z,2.17
2018-09-17T08:06:52.261Z,4.23
2018-09-17T08:09:20.784Z,4.70
2018-09-17T08:11:49.262Z,2.97
2018-09-17T08:14:17.788Z,2.97
2018-09-17T08:16:46.250Z,5.30
2018-09-17T08:19:14.696Z,3.03
2018-09-17T08:21:43.124Z,2.83
2018-09-17T08:24:11.658Z,4.50
2018-09-17T08:26:40.129Z,2.17
2018-09-17T08:29:09.014Z,4.10
2018-09-17T08:31:37.563Z,3.93
2018-09-17T08:34:06.141Z,3.17
2018-09-17T08:36:37.211Z,5.23
2018-09-17T08:39:14.154Z,3.40
2018-09-17T08:41:45.271Z,3.97
2018-09-17T08:44:14.030Z,1.30
2018-09-17T08:46:42.802Z,3.00
2018-09-17T08:49:32.532Z,4.17
2018-09-17T08:55:15.313Z,1.40
2018-09-17T08:57:49.232Z,3.80
2018-09-17T09:00:17.757Z,3.27
2018-09-17T09:02:50.689Z,1.97
2018-09-17T09:05:24.882Z,2.83
2018-09-17T09:07:54.689Z,2.50
2018-09-17T09:10:28.460Z,4.57
2018-09-17T09:13:02.525Z,1.80
2018-09-17T09:22:40.380Z,2.90
2018-09-17T09:25:10.017Z,1.03
2018-09-17T09:27:38.483Z,4.80
2018-09-17T09:30:06.929Z,2.53
2018-09-17T09:32:35.415Z,1.70
2018-09-17T09:35:03.917Z,1.77
2018-09-17T09:37:32.372Z,1.60
2018-09-17T09:40:00.913Z,1.90
2018-09-17T09:42:29.390Z,1.97
2018-09-17T09:44:57.854Z,3.13
2018-09-17T09:47:26.302Z,1.67
2018-09-17T09:49:55.139Z,1.23
2018-09-17T09:52:23.598Z,3.27
2018-09-17T09:54:52.071Z,2.00
2018-09-17T09:57:20.526Z,1.30
2018-09-17T09:59:49.018Z,2.13
2018-09-17T10:02:22.730Z,1.60
2018-09-17T10:04:51.219Z,2.77
2018-09-17T10:07:19.667Z,1.07
2018-09-17T10:09:53.471Z,3.17
2018-09-17T10:12:27.446Z,3.60
2018-09-17T10:15:01.227Z,1.30
2018-09-17T10:17:35.005Z,1.20
2018-09-17T10:20:03.561Z,2.60
2018-09-17T10:22:32.070Z,1.67
2018-09-17T10:25:00.550Z,2.50
2018-09-17T10:27:29.059Z,2.77
2018-09-17T10:29:57.617Z,2.57
2018-09-17T10:32:26.580Z,1.93
2018-09-17T10:34:55.094Z,2.10
2018-09-17T10:37:23.566Z,3.43
2018-09-17T10:39:52.069Z,3.63
2018-09-17T10:42:20.573Z,1.90
2018-09-17T10:44:49.050Z,4.83
2018-09-17T10:47:17.599Z,1.77
2018-09-17T10:49:46.054Z,2.87
2018-09-17T10:52:15.147Z,3.87
2018-09-17T10:54:43.605Z,1.20
2018-09-17T10:57:12.141Z,3.40
2018-09-17T10:59:40.648Z,2.30
2018-09-17T11:02:09.240Z,1.20
2018-09-17T11:04:37.723Z,2.43
2018-09-17T11:07:06.486Z,3.90
2018-09-17T11:09:36.575Z,1.13
2018-09-17T11:12:05.148Z,1.23
2018-09-17T11:14:33.732Z,1.97
2018-09-17T11:17:03.855Z,2.43
2018-09-17T11:19:32.406Z,2.20
2018-09-17T11:22:03.762Z,1.73
2018-09-17T11:24:32.313Z,2.23
2018-09-17T11:27:00.850Z,3.23
2018-09-17T11:29:29.417Z,3.13
2018-09-17T11:31:57.953Z,2.53
2018-09-17T11:34:26.797Z,2.03
2018-09-17T11:36:55.375Z,1.77
2018-09-17T11:39:25.148Z,1.40
2018-09-17T11:41:53.658Z,2.13
2018-09-17T11:44:22.478Z,1.80
2018-09-17T11:46:50.975Z,2.27
2018-09-17T11:49:19.475Z,1.83
2018-09-17T11:51:49.544Z,2.63
2018-09-17T11:54:18.118Z,1.33
2018-09-17T11:56:49.339Z,2.77
2018-09-17T11:59:17.866Z,1.40
2018-09-17T12:01:55.603Z,1.33
2018-09-17T12:04:29.841Z,2.33
2018-09-17T12:07:03.646Z,1.10
2018-09-17T12:09:32.792Z,1.57
2018-09-17T12:12:02.837Z,2.40
2018-09-17T12:14:32.118Z,1.10
2018-09-17T12:17:01.129Z,1.00
2018-09-17T12:19:29.607Z,2.93
2018-09-17T12:21:58.110Z,1.27
2018-09-17T12:24:26.598Z,2.63
2018-09-17T12:26:56.161Z,2.43
2018-09-17T12:29:24.646Z,1.43
2018-09-17T12:31:53.645Z,1.77
2018-09-17T12:34:23.426Z,1.47
2018-09-17T12:36:51.933Z,1.67
2018-09-17T12:39:20.414Z,1.53
2018-09-17T12:41:50.015Z,1.77
2018-09-17T12:44:18.706Z,1.33
2018-09-17T12:46:47.936Z,1.63
2018-09-17T12:49:17.765Z,1.57
2018-09-17T12:51:48.194Z,1.43
2018-09-17T12:54:16.798Z,2.63
2018-09-17T12:56:45.345Z,1.83
2018-09-17T12:59:13.818Z,2.87
2018-09-17T13:01:43.625Z,2.43
2018-09-17T13:04:12.250Z,2.77
2018-09-17T13:06:41.457Z,4.67
2018-09-17T13:09:11.152Z,1.80
2018-09-17T13:11:40.880Z,4.80
2018-09-17T13:14:09.432Z,1.97
2018-09-17T13:16:39.535Z,1.73
2018-09-17T13:19:10.765Z,1.93
2018-09-17T13:21:39.931Z,2.17
2018-09-17T13:24:08.502Z,1.70
2018-09-17T13:26:37.981Z,1.50
2018-09-17T13:29:06.541Z,4.87
2018-09-17T13:31:35.334Z,3.03
2018-09-17T13:34:03.798Z,2.77
2018-09-17T13:36:35.643Z,1.87
2018-09-17T13:39:06.896Z,2.10
2018-09-17T13:41:37.167Z,2.50
2018-09-17T13:44:05.736Z,1.87
2018-09-17T13:46:36.073Z,1.30
2018-09-17T13:49:06.193Z,3.33
2018-09-17T13:51:36.915Z,2.90
2018-09-17T13:54:05.440Z,2.97
2018-09-17T13:56:33.934Z,3.37
2018-09-17T13:59:02.426Z,2.52
2018-09-17T14:01:30.909Z,2.77
2018-09-17T14:04:00.127Z,2.37
2018-09-17T14:06:28.602Z,3.60
2018-09-17T14:08:57.115Z,3.07
2018-09-17T14:11:26.281Z,2.97
2018-09-17T14:13:54.836Z,2.27
2018-09-17T14:16:28.631Z,2.80
2018-09-17T14:18:57.242Z,1.27
2018-09-17T14:21:25.818Z,3.52
2018-09-17T14:23:55.251Z,5.62
2018-09-17T14:26:23.989Z,2.02
2018-09-17T14:28:52.433Z,1.47
2018-09-17T14:31:26.263Z,2.93
2018-09-17T14:33:54.813Z,3.20
2018-09-17T14:36:23.460Z,1.30
2018-09-17T14:38:52.254Z,4.13
2018-09-17T14:41:20.807Z,2.43
2018-09-17T14:43:49.445Z,1.43
2018-09-17T14:46:18.035Z,2.60
2018-09-17T14:48:46.634Z,2.03
2018-09-17T14:51:15.142Z,3.07
2018-09-17T14:53:43.687Z,1.80
2018-09-17T14:56:12.223Z,1.67
2018-09-17T14:58:40.722Z,2.47
2018-09-17T15:01:09.259Z,3.47
2018-09-17T15:03:37.816Z,8.40
2018-09-17T15:06:07.385Z,3.20
2018-09-17T15:08:36.598Z,2.73
2018-09-17T15:11:05.044Z,3.07
2018-09-17T15:13:34.567Z,2.00
2018-09-17T15:16:03.631Z,1.97
2018-09-17T15:18:32.277Z,1.43
2018-09-17T15:21:00.865Z,1.90
2018-09-17T15:23:29.361Z,2.47
2018-09-17T15:25:58.069Z,4.40
2018-09-17T15:28:26.552Z,5.03
2018-09-17T15:30:55.701Z,4.50
2018-09-17T15:33:24.146Z,2.60
2018-09-17T15:35:54.192Z,1.67
2018-09-17T15:38:22.744Z,3.67
2018-09-17T15:40:51.385Z,2.50
2018-09-17T15:43:19.874Z,2.07
2018-09-17T15:45:48.683Z,4.07
2018-09-17T15:48:17.685Z,4.23
2018-09-17T15:50:46.281Z,3.60
2018-09-17T15:53:17.199Z,2.20
2018-09-17T15:55:45.815Z,1.60
2018-09-17T15:58:14.429Z,3.10
2018-09-17T16:00:42.873Z,3.17
2018-09-17T16:03:11.392Z,1.80
2018-09-17T16:05:41.901Z,3.23
2018-09-17T16:08:10.426Z,5.70
2018-09-17T16:10:38.898Z,2.20
2018-09-17T16:13:07.350Z,2.10
2018-09-17T16:15:38.651Z,4.00
2018-09-17T16:18:07.253Z,1.53
2018-09-17T16:20:35.876Z,2.60
2018-09-17T16:23:04.429Z,2.77
2018-09-17T16:25:32.897Z,2.97
2018-09-17T16:28:01.374Z,1.83
2018-09-17T16:30:29.886Z,1.80
2018-09-17T16:32:59.386Z,3.20
2018-09-17T16:35:29.204Z,1.80
2018-09-17T16:37:57.774Z,4.00
2018-09-17T16:40:26.286Z,3.30
2018-09-17T16:42:54.740Z,2.77
2018-09-17T16:45:23.329Z,4.57
2018-09-17T16:47:51.788Z,4.97
2018-09-17T16:50:20.271Z,3.10
2018-09-17T16:52:48.766Z,2.47
2018-09-17T16:55:17.186Z,2.57
2018-09-17T16:57:45.643Z,3.43
2018-09-17T17:00:14.115Z,4.30
2018-09-17T17:02:42.573Z,3.10
2018-09-17T17:05:11.089Z,4.10
2018-09-17T17:07:39.562Z,4.40
2018-09-17T17:10:08.067Z,5.83
2018-09-17T17:12:38.212Z,4.10
2018-09-17T17:15:06.693Z,10.90
2018-09-17T17:17:35.177Z,10.53
2018-09-17T17:20:03.919Z,15.67
2018-09-17T17:22:32.452Z,6.67
2018-09-17T17:25:00.990Z,9.10
2018-09-17T17:27:29.486Z,6.00
2018-09-17T17:29:57.993Z,5.40
2018-09-17T17:32:26.461Z,4.47
2018-09-17T17:34:54.998Z,5.33
2018-09-17T17:37:23.602Z,6.30
2018-09-17T17:39:52.208Z,2.53
2018-09-17T17:42:21.361Z,3.13
2018-09-17T17:44:50.559Z,4.27
2018-09-17T17:47:19.026Z,3.80
2018-09-17T17:49:47.759Z,5.53
2018-09-17T17:52:17.130Z,4.03
2018-09-17T17:54:45.587Z,3.60
2018-09-17T17:57:14.288Z,4.53
2018-09-17T17:59:42.941Z,2.07
2018-09-17T18:02:11.578Z,5.00
2018-09-17T18:04:40.161Z,5.57
2018-09-17T18:07:08.693Z,3.23
2018-09-17T18:09:37.343Z,5.47
2018-09-17T18:12:05.919Z,7.90
2018-09-17T18:14:34.474Z,4.23
2018-09-17T18:17:02.980Z,5.27
2018-09-17T18:19:31.443Z,6.97
2018-09-17T18:22:00.142Z,6.80
2018-09-17T18:24:28.647Z,3.97
2018-09-17T18:26:57.441Z,5.27
2018-09-17T18:29:26.865Z,3.93
2018-09-17T18:31:55.334Z,5.93
2018-09-17T18:34:23.930Z,3.37
2018-09-17T18:36:52.556Z,6.23
2018-09-17T18:39:21.090Z,3.70
2018-09-17T18:41:49.542Z,5.90
2018-09-17T18:44:18.011Z,3.33
2018-09-17T18:46:47.117Z,3.80
2018-09-17T18:49:15.568Z,4.97
2018-09-17T18:51:44.058Z,3.70
2018-09-17T18:54:13.202Z,5.93
2018-09-17T18:56:41.750Z,3.83
2018-09-17T18:59:10.206Z,3.70
2018-09-17T19:01:38.788Z,6.33
2018-09-17T19:04:07.303Z,4.80
2018-09-17T19:06:35.776Z,7.13
2018-09-17T19:09:05.309Z,4.97
2018-09-17T19:11:33.921Z,5.97
2018-09-17T19:15:08.402Z,5.97
2018-09-17T19:17:41.090Z,5.30
2018-09-17T19:20:10.948Z,2.83
2018-09-17T19:22:44.742Z,4.53
2018-09-17T19:25:14.274Z,5.17
2018-09-17T19:27:48.266Z,5.47
2018-09-17T19:30:16.980Z,3.73
2018-09-17T19:32:45.647Z,3.30
2018-09-17T19:35:14.150Z,5.73
2018-09-17T19:37:47.918Z,3.07
2018-09-17T19:40:18.624Z,4.57
2018-09-17T19:42:48.085Z,5.33
2018-09-17T19:45:21.985Z,5.93
2018-09-17T19:47:51.360Z,2.73
2018-09-17T19:50:25.085Z,4.97
2018-09-17T19:52:54.309Z,5.43
2018-09-17T19:55:22.829Z,5.17
2018-09-17T19:57:56.674Z,6.47
2018-09-17T20:00:25.207Z,5.67
2018-09-17T20:02:53.667Z,3.67
2018-09-17T20:05:27.545Z,2.70
2018-09-17T20:07:57.421Z,6.10
2018-09-17T20:10:25.955Z,3.57
2018-09-17T20:12:54.421Z,6.30
2018-09-17T20:15:22.949Z,3.37
2018-09-17T20:17:51.407Z,2.63
2018-09-17T20:20:20.016Z,4.47
2018-09-17T20:22:48.477Z,4.73
2018-09-17T20:25:16.941Z,4.97
2018-09-17T20:27:45.449Z,4.77
2018-09-17T20:30:13.932Z,4.77
2018-09-17T20:32:42.446Z,3.53
2018-09-17T20:35:11.807Z,4.17
2018-09-17T20:37:40.670Z,3.40
2018-09-17T20:40:10.732Z,6.83
2018-09-17T20:42:39.317Z,4.90
2018-09-17T20:45:08.321Z,4.20
2018-09-17T20:47:37.112Z,8.07
2018-09-17T20:50:06.394Z,3.73
2018-09-17T20:52:42.015Z,3.67
2018-09-17T20:55:10.721Z,3.77
2018-09-17T20:57:39.254Z,8.80
2018-09-17T21:00:08.689Z,3.90
2018-09-17T21:02:37.968Z,4.27
2018-09-17T21:05:07.656Z,5.10
2018-09-17T21:07:39.316Z,2.50
2018-09-17T21:10:08.060Z,5.13
2018-09-17T21:12:37.411Z,4.77
2018-09-17T21:15:06.974Z,4.30
2018-09-17T21:17:35.814Z,7.23
2018-09-17T21:20:05.437Z,2.90
2018-09-17T21:22:34.250Z,3.23
2018-09-17T21:25:03.546Z,3.83
2018-09-17T21:27:32.038Z,3.60
2018-09-17T21:30:00.838Z,4.80
2018-09-17T21:32:29.313Z,3.10
2018-09-17T21:34:58.274Z,3.70
2018-09-17T21:37:26.769Z,4.13
2018-09-17T21:39:55.238Z,2.80
2018-09-17T21:42:23.866Z,4.70
2018-09-17T21:44:52.331Z,2.60
2018-09-17T21:47:20.804Z,4.17
2018-09-17T21:49:49.375Z,4.07
2018-09-17T21:52:17.888Z,2.93
2018-09-17T21:54:46.408Z,3.73
2018-09-17T21:57:14.881Z,2.80
2018-09-17T21:59:43.411Z,5.20
2018-09-17T22:02:11.993Z,3.70
2018-09-17T22:04:40.743Z,4.70
2018-09-17T22:07:09.191Z,6.57
2018-09-17T22:09:37.698Z,4.60
2018-09-17T22:12:06.455Z,3.50
2018-09-17T22:14:34.940Z,4.87
2018-09-17T22:17:03.433Z,4.70
2018-09-17T22:19:31.909Z,6.03
2018-09-17T22:22:00.431Z,5.27
2018-09-17T22:24:28.887Z,4.93
2018-09-17T22:26:57.443Z,4.97
2018-09-17T22:29:27.571Z,9.03
2018-09-17T22:31:56.053Z,3.60
2018-09-17T22:34:24.503Z,3.57
2018-09-17T22:36:52.998Z,4.87
2018-09-17T22:39:21.446Z,6.03
2018-09-17T22:41:50.663Z,3.50
2018-09-17T22:44:19.103Z,2.87
2018-09-17T22:46:47.571Z,5.03
2018-09-17T22:49:16.045Z,4.33
2018-09-17T22:51:44.531Z,4.47
2018-09-17T22:54:15.803Z,3.57
2018-09-17T22:56:44.306Z,3.70
2018-09-17T22:59:13.387Z,4.40
2018-09-17T23:01:41.882Z,3.40
2018-09-17T23:04:10.338Z,4.17
2018-09-17T23:06:38.804Z,4.03
2018-09-17T23:09:09.116Z,4.40
2018-09-17T23:11:37.637Z,4.53
2018-09-17T23:14:06.123Z,3.30
2018-09-17T23:16:34.583Z,6.07
2018-09-17T23:19:03.040Z,4.00
2018-09-17T23:21:31.503Z,6.60
2018-09-17T23:24:00.071Z,6.37
2018-09-17T23:26:28.530Z,6.17
2018-09-17T23:28:57.057Z,15.47
2018-09-17T23:31:25.503Z,22.17
2018-09-17T23:33:53.974Z,24.10
2018-09-17T23:36:22.455Z,23.23
2018-09-17T23:38:50.916Z,19.37
2018-09-17T23:41:19.359Z,14.37
2018-09-17T23:43:47.988Z,13.77
2018-09-17T23:46:16.483Z,11.83
2018-09-17T23:48:44.941Z,10.13
2018-09-17T23:51:13.394Z,9.53
2018-09-17T23:53:41.857Z,5.53
2018-09-17T23:56:10.350Z,5.27
2018-09-17T23:58:38.897Z,5.47
